Cumberland, MD

1:32 AM EDT on August 21, 2014 (GMT -0400)
Greater Cumberland Regional | Change Station
CLOSE
Current Station
Airport
Location: Cumberland,
Elevation: 774 ft
Nearby Weather Stations

Elev 774 ft 39.62 °N, 78.76 °W | Updated 17 minutes ago

Scattered Clouds
Scattered Clouds
70 °F
Feels Like 70 °F
N
0
Wind Variable Wind from North

Today
High -- | Low -- °F
--% Chance of Precip.
Yesterday
High -- | Low -- °F
Precip. -- in
6:32 AM 8:02 PM
Waning Crescent, 16% visible
Pressure 30.05 in
Visibility 7.0 miles
Clouds Scattered Clouds 10000 ft
Dew Point 68 °F
Humidity 94%
Rainfall 0.00 in
Snow Depth Not available.
UV 0 out of 12
Pollen 8.50 out of 12
Air Quality Not available.
Flu Activity Not available.
METAR KCBE 210515Z AUTO 00000KT 7SM SCT100 21/20 A3005 RMK AO1

More Conditions Fewer Conditions

Pressure 30.05 in
Visibility 7.0 miles
Clouds Scattered Clouds 10000 ft
Dew Point 68 °F
Humidity 94%
Rainfall 0.00 in
Snow Depth Not available.
UV 0 out of 12
Pollen 8.50 out of 12
Air Quality Not available.
Flu Activity Not available.
METAR KCBE 210515Z AUTO 00000KT 7SM SCT100 21/20 A3005 RMK AO1

More Conditions Fewer Conditions

10-Day Weather Forecast

Almanac

Astronomy

Aug. 21, 2014 Rise Set
Actual Time 6:32 AM EDT 8:02 PM EDT
Civil Twilight 6:04 AM EDT 8:30 PM EDT
Nautical Twilight 5:30 AM EDT 9:05 PM EDT
Astronomical Twilight 4:54 AM EDT 9:40 PM EDT
Moon 3:01 AM EDT 5:29 PM EDT
Length of Visible Light 14h 26m
Length of Day
13h 29m
Tomorrow will be 2m 24s shorter.
Waning Crescent, 16% of the Moon is Illuminated
Today
Waning Crescent
Aug 25
New
Sep 2
First Quarter
Sep 8
Full
Sep 15
Last Quarter

Today's Extremes

State Highs State Lows

Community

WunderPhotos

Upload Photos

1,745,858 photos uploaded!

Nearby

Snow Depth

Station Depth Elevation
No new snow has been reported.

Earthquake Activity

City Distance Mag. Time & Date
No recent earthquake activity has been reported nearby.
Minimum magnitude displayed is 2.5.

Coastal Water Temperatures

Place Temperature
No Stations Reporting

Nearby Weather Stations